Time;durP1;ratioP1;P1;durP2;ratioP2;P2;SDS_P1;SDS_P2;PMS_P1;PMS_P2;Temp;Humidity;BMP_temperature;BMP_pressure;BME280_temperature;BME280_humidity;BME280_pressure;Samples;Min_cycle;Max_cycle;Signal;HPM_P1;HPM_P2
2024/02/27 00:00:15;;;;;;;9.98;3.78;;;7.30;99.90;;;;;;5116898;27;20096;-78
2024/02/27 00:03:04;;;;;;;11.65;5.13;;;7.20;99.90;;;;;;5099504;27;20589;-79
2024/02/27 00:05:52;;;;;;;13.38;6.10;;;7.20;99.90;;;;;;5104280;27;20096;-79
2024/02/27 00:08:40;;;;;;;6.05;3.90;;;7.20;99.90;;;;;;5088192;27;20051;-78
2024/02/27 00:11:28;;;;;;;7.32;2.97;;;7.20;99.90;;;;;;5107068;27;20144;-79
2024/02/27 00:14:15;;;;;;;6.13;2.70;;;7.20;99.90;;;;;;5108159;27;20176;-80
2024/02/27 00:17:05;;;;;;;2.75;1.60;;;7.20;99.90;;;;;;5106679;27;20055;-79
2024/02/27 00:19:52;;;;;;;1.92;1.40;;;7.20;99.90;;;;;;5089009;27;20039;-79
2024/02/27 00:22:40;;;;;;;3.00;2.10;;;7.20;99.90;;;;;;5097795;28;20040;-81
2024/02/27 00:25:27;;;;;;;3.65;2.70;;;7.20;99.90;;;;;;5090889;27;20043;-78
2024/02/27 00:28:15;;;;;;;3.60;2.67;;;7.20;99.90;;;;;;5091035;27;20334;-77
2024/02/27 00:31:03;;;;;;;7.28;3.55;;;7.20;99.90;;;;;;5087338;28;20051;-80
2024/02/27 00:33:53;;;;;;;10.63;4.75;;;7.20;99.90;;;;;;5086476;27;20048;-77
2024/02/27 00:36:41;;;;;;;7.50;3.65;;;7.10;99.90;;;;;;5114916;27;20456;-79
2024/02/27 00:39:29;;;;;;;7.22;4.13;;;7.10;99.90;;;;;;5107593;27;20054;-79
2024/02/27 00:42:17;;;;;;;6.88;4.45;;;7.00;99.90;;;;;;5100055;27;20484;-75
2024/02/27 00:45:05;;;;;;;3.25;1.80;;;7.00;99.90;;;;;;5112503;27;20043;-79
2024/02/27 00:47:53;;;;;;;4.63;1.60;;;7.00;99.90;;;;;;5102317;27;20059;-79
2024/02/27 00:50:41;;;;;;;1.92;1.65;;;7.00;99.90;;;;;;5088854;27;20139;-78
2024/02/27 00:53:31;;;;;;;2.17;1.40;;;7.00;99.90;;;;;;5085273;28;20040;-80
2024/02/27 00:56:19;;;;;;;2.20;1.70;;;7.00;99.90;;;;;;5089148;28;20036;-80
2024/02/27 00:59:11;;;;;;;2.30;1.92;;;7.00;99.90;;;;;;5104543;27;20036;-79
2024/02/27 01:01:59;;;;;;;2.58;1.73;;;7.00;99.90;;;;;;5103344;27;20419;-80
2024/02/27 01:04:47;;;;;;;2.00;1.60;;;7.00;99.90;;;;;;5092692;27;20054;-81
2024/02/27 01:07:35;;;;;;;2.47;1.63;;;7.00;99.90;;;;;;5088543;28;20043;-80
2024/02/27 01:10:23;;;;;;;1.98;1.60;;;7.00;99.90;;;;;;5099885;28;20696;-80
2024/02/27 01:13:10;;;;;;;2.30;1.83;;;7.00;99.90;;;;;;5102318;27;20141;-80
2024/02/27 01:15:57;;;;;;;2.13;1.50;;;6.90;99.90;;;;;;5111155;27;20043;-78
2024/02/27 01:18:47;;;;;;;1.95;1.70;;;6.90;99.90;;;;;;5105076;27;20046;-81
2024/02/27 01:21:35;;;;;;;4.07;1.88;;;6.90;99.90;;;;;;5101143;27;20102;-80
2024/02/27 01:24:22;;;;;;;1.95;1.50;;;6.90;99.90;;;;;;5105099;28;20416;-81
2024/02/27 01:27:09;;;;;;;4.15;1.77;;;6.80;99.90;;;;;;5107339;27;20043;-78
2024/02/27 01:29:58;;;;;;;2.00;1.40;;;6.80;99.90;;;;;;5098323;28;20035;-82
2024/02/27 01:32:46;;;;;;;1.95;1.40;;;6.70;99.90;;;;;;5103732;27;20079;-78
2024/02/27 01:35:35;;;;;;;2.38;1.50;;;6.70;99.90;;;;;;5093479;27;20107;-79
2024/02/27 01:38:22;;;;;;;2.88;1.63;;;6.60;99.90;;;;;;5115792;27;20047;-77
2024/02/27 01:41:10;;;;;;;2.33;1.67;;;6.60;99.90;;;;;;5120240;27;20040;-77
2024/02/27 01:43:57;;;;;;;1.85;1.50;;;6.60;99.90;;;;;;5121873;27;20051;-78
2024/02/27 01:46:46;;;;;;;1.35;1.25;;;6.60;1.00;;;;;;5118756;27;20047;-79
2024/02/27 01:49:35;;;;;;;1.20;1.10;;;6.50;1.00;;;;;;5105917;27;20470;-79
2024/02/27 01:52:22;;;;;;;1.88;1.70;;;6.60;1.00;;;;;;5095686;27;20236;-80
2024/02/27 01:55:10;;;;;;;1.40;1.30;;;6.60;1.00;;;;;;5096990;28;20076;-80
2024/02/27 01:57:59;;;;;;;1.08;1.00;;;6.60;1.00;;;;;;5106700;28;20134;-78
2024/02/27 02:00:47;;;;;;;1.42;1.10;;;6.60;1.00;;;;;;5093695;28;20134;-80
2024/02/27 02:03:38;;;;;;;2.45;1.08;;;6.70;1.00;;;;;;5104357;28;20044;-81
2024/02/27 02:06:26;;;;;;;1.20;1.10;;;6.60;1.00;;;;;;5074327;27;20152;-80
2024/02/27 02:09:14;;;;;;;1.73;1.23;;;6.60;1.00;;;;;;5108906;28;20357;-80
2024/02/27 02:12:02;;;;;;;2.65;1.25;;;6.60;1.00;;;;;;5096638;28;20131;-78
2024/02/27 02:14:51;;;;;;;1.58;1.42;;;6.60;1.00;;;;;;5105819;28;20044;-77
2024/02/27 02:17:42;;;;;;;1.25;1.10;;;6.60;1.00;;;;;;5117260;27;20651;-80
2024/02/27 02:20:30;;;;;;;1.27;1.17;;;6.60;1.00;;;;;;5102757;28;20091;-78
2024/02/27 02:23:20;;;;;;;0.90;0.90;;;6.60;1.00;;;;;;5122119;28;20032;-77
2024/02/27 02:26:08;;;;;;;2.28;1.23;;;6.60;1.00;;;;;;5106767;28;20079;-80
2024/02/27 02:28:57;;;;;;;1.20;1.10;;;6.60;1.00;;;;;;5085491;28;20047;-80
2024/02/27 02:31:45;;;;;;;1.65;1.30;;;6.50;1.00;;;;;;5102977;27;20243;-80
2024/02/27 02:34:32;;;;;;;1.45;1.10;;;6.50;13.50;;;;;;5088018;28;20058;-79
2024/02/27 02:37:21;;;;;;;3.33;1.40;;;6.50;38.70;;;;;;5097690;28;20048;-80
2024/02/27 02:40:09;;;;;;;1.15;1.10;;;6.50;70.90;;;;;;5092093;28;20039;-81
2024/02/27 02:42:58;;;;;;;1.52;1.23;;;6.50;96.10;;;;;;5089647;28;20126;-79
2024/02/27 02:45:47;;;;;;;1.50;1.13;;;6.40;99.90;;;;;;5094296;28;20059;-79
2024/02/27 02:48:36;;;;;;;1.70;1.60;;;6.40;99.90;;;;;;5098386;28;20477;-81
2024/02/27 02:51:23;;;;;;;1.58;1.48;;;6.40;99.90;;;;;;5088007;28;20547;-81
2024/02/27 02:54:11;;;;;;;4.47;1.90;;;6.40;99.90;;;;;;5109669;28;20040;-81
2024/02/27 02:57:00;;;;;;;3.65;2.00;;;6.40;99.90;;;;;;5103641;28;20202;-79
2024/02/27 02:59:48;;;;;;;1.60;1.50;;;6.40;99.90;;;;;;5083726;28;20042;-80
2024/02/27 03:02:35;;;;;;;2.00;1.52;;;6.40;99.90;;;;;;5098904;28;20050;-80
2024/02/27 03:05:25;;;;;;;4.57;1.92;;;6.40;99.90;;;;;;5107134;28;20130;-81
2024/02/27 03:08:14;;;;;;;3.03;2.22;;;6.40;99.90;;;;;;5120559;28;20039;-76
2024/02/27 03:11:02;;;;;;;3.78;2.03;;;6.30;99.90;;;;;;5123257;28;20142;-78
2024/02/27 03:13:51;;;;;;;4.35;2.50;;;6.30;99.90;;;;;;5128493;27;20026;-79
2024/02/27 03:16:38;;;;;;;2.95;2.20;;;6.30;99.90;;;;;;5101373;28;20055;-79
2024/02/27 03:19:26;;;;;;;3.45;2.65;;;6.30;1.00;;;;;;5078717;28;20129;-77
2024/02/27 03:22:15;;;;;;;3.75;2.75;;;6.30;1.00;;;;;;5109537;27;20036;-80
2024/02/27 03:25:05;;;;;;;3.58;3.00;;;6.30;1.00;;;;;;5111035;27;20051;-78
2024/02/27 03:27:53;;;;;;;4.50;3.60;;;6.30;1.00;;;;;;5102096;27;20050;-81
2024/02/27 03:30:41;;;;;;;9.13;3.88;;;6.30;1.00;;;;;;5105518;28;20032;-76
2024/02/27 03:33:28;;;;;;;5.25;3.70;;;6.30;1.00;;;;;;5123178;27;20028;-77
2024/02/27 03:36:16;;;;;;;4.70;3.65;;;6.30;1.00;;;;;;5100286;27;20040;-76
2024/02/27 03:39:04;;;;;;;5.78;4.10;;;6.40;1.00;;;;;;5106500;27;20039;-80
2024/02/27 03:41:52;;;;;;;5.50;3.80;;;6.30;1.00;;;;;;5104268;28;20039;-81
2024/02/27 03:44:45;;;;;;;6.07;4.30;;;6.30;1.00;;;;;;5102692;27;20120;-80
2024/02/27 03:47:33;;;;;;;8.15;4.80;;;6.30;99.90;;;;;;5106260;27;20448;-80
2024/02/27 03:50:23;;;;;;;7.22;4.57;;;6.30;99.90;;;;;;5103331;27;20044;-80
2024/02/27 03:53:11;;;;;;;8.02;5.13;;;6.30;99.90;;;;;;5102379;27;20049;-80
2024/02/27 03:56:00;;;;;;;7.72;5.20;;;6.30;99.90;;;;;;5095630;27;20039;-81
2024/02/27 03:58:47;;;;;;;9.38;5.40;;;6.30;99.90;;;;;;5095937;28;20055;-82
2024/02/27 04:01:35;;;;;;;9.23;5.63;;;6.30;99.90;;;;;;5091057;28;20181;-78
2024/02/27 04:04:22;;;;;;;7.35;5.40;;;6.20;99.90;;;;;;5096681;27;20588;-80
2024/02/27 04:07:10;;;;;;;8.93;5.22;;;6.20;99.90;;;;;;5087141;28;20059;-81
2024/02/27 04:09:57;;;;;;;9.75;6.15;;;6.20;99.90;;;;;;5098865;27;20184;-82
2024/02/27 04:12:47;;;;;;;9.65;5.78;;;6.20;99.90;;;;;;5087088;28;20474;-81
2024/02/27 04:15:35;;;;;;;10.57;5.93;;;6.20;99.90;;;;;;5097937;28;20044;-79
2024/02/27 04:18:24;;;;;;;7.57;5.38;;;6.10;99.90;;;;;;5113143;27;20044;-81
2024/02/27 04:21:13;;;;;;;11.73;6.72;;;6.20;99.90;;;;;;5094333;27;20047;-79
2024/02/27 04:24:01;;;;;;;9.73;5.78;;;6.10;99.90;;;;;;5098815;28;20144;-80
2024/02/27 04:26:49;;;;;;;10.63;6.55;;;6.10;99.90;;;;;;5109198;27;20048;-77
2024/02/27 04:29:36;;;;;;;9.25;5.45;;;6.10;92.70;;;;;;5106735;27;20058;-80
2024/02/27 04:32:24;;;;;;;10.85;6.93;;;6.10;77.20;;;;;;5088978;27;20512;-81
2024/02/27 04:35:13;;;;;;;11.77;6.47;;;6.00;56.30;;;;;;5100972;27;20103;-78
2024/02/27 04:38:02;;;;;;;12.32;6.63;;;6.00;53.50;;;;;;5097445;28;20047;-80
2024/02/27 04:40:51;;;;;;;11.25;6.70;;;6.00;49.90;;;;;;5104766;27;20044;-80
2024/02/27 04:43:40;;;;;;;11.65;6.72;;;6.00;52.10;;;;;;5074356;27;20066;-79
2024/02/27 04:46:30;;;;;;;9.25;6.20;;;5.90;54.30;;;;;;5101634;27;20040;-79
2024/02/27 04:49:19;;;;;;;10.18;6.75;;;5.90;58.80;;;;;;5108884;27;20035;-80
2024/02/27 04:52:08;;;;;;;11.50;7.25;;;5.90;63.10;;;;;;5107517;27;20052;-80
2024/02/27 04:54:55;;;;;;;12.02;7.10;;;5.90;64.60;;;;;;5101744;27;20100;-79
2024/02/27 04:57:43;;;;;;;11.85;7.50;;;5.90;56.90;;;;;;5111437;27;20044;-80
2024/02/27 05:00:31;;;;;;;12.15;7.18;;;5.90;64.40;;;;;;5084912;28;20044;-79
2024/02/27 05:03:20;;;;;;;14.50;8.68;;;5.90;51.20;;;;;;5100792;27;20109;-79
2024/02/27 05:06:08;;;;;;;12.70;7.47;;;5.80;45.30;;;;;;5115518;27;20107;-77
2024/02/27 05:08:57;;;;;;;15.57;7.97;;;5.80;35.30;;;;;;5113817;28;20051;-78
2024/02/27 05:11:46;;;;;;;14.77;8.27;;;5.80;29.80;;;;;;5096773;28;20035;-78
2024/02/27 05:14:33;;;;;;;16.20;7.80;;;5.80;23.60;;;;;;5107162;27;20260;-78
2024/02/27 05:17:20;;;;;;;14.52;8.18;;;5.80;15.70;;;;;;5111745;27;20066;-80
2024/02/27 05:20:08;;;;;;;14.27;8.38;;;5.80;18.30;;;;;;5086722;28;20068;-80
2024/02/27 05:22:56;;;;;;;14.40;9.10;;;5.70;19.60;;;;;;5089284;27;20060;-80
2024/02/27 05:25:45;;;;;;;12.90;8.88;;;5.70;10.30;;;;;;5102939;27;20143;-79
2024/02/27 05:28:32;;;;;;;15.50;8.48;;;5.70;13.60;;;;;;5103337;27;20097;-79
2024/02/27 05:31:26;;;;;;;18.02;9.68;;;5.70;1.20;;;;;;5102604;27;20124;-78
2024/02/27 05:34:14;;;;;;;15.93;9.55;;;5.70;6.40;;;;;;5094992;27;20114;-76
2024/02/27 05:37:04;;;;;;;17.48;9.27;;;5.70;13.90;;;;;;5081457;28;20066;-77
2024/02/27 05:39:51;;;;;;;18.65;9.98;;;5.70;18.40;;;;;;5098249;27;20050;-78
2024/02/27 05:42:39;;;;;;;15.00;9.70;;;5.70;21.50;;;;;;5103219;28;20043;-78
2024/02/27 05:45:26;;;;;;;15.88;10.05;;;5.60;26.90;;;;;;5107342;27;20063;-75
2024/02/27 05:48:13;;;;;;;18.00;11.05;;;5.70;39.20;;;;;;5098810;27;20047;-75
2024/02/27 05:51:02;;;;;;;18.83;11.02;;;5.60;45.40;;;;;;5103989;27;21156;-79
2024/02/27 05:53:50;;;;;;;19.67;10.95;;;5.60;56.40;;;;;;5084994;28;20054;-78
2024/02/27 05:56:38;;;;;;;20.60;11.80;;;5.60;74.50;;;;;;5093219;27;20496;-77
2024/02/27 05:59:25;;;;;;;19.90;11.60;;;5.70;94.00;;;;;;5101932;27;20039;-78
2024/02/27 06:02:14;;;;;;;18.80;10.90;;;5.70;99.90;;;;;;5090833;27;20220;-80
2024/02/27 06:05:04;;;;;;;22.02;12.30;;;5.60;99.90;;;;;;5098604;27;21211;-81
2024/02/27 06:07:53;;;;;;;24.13;13.73;;;5.60;99.90;;;;;;5082444;28;20048;-83
2024/02/27 06:10:41;;;;;;;21.30;11.75;;;5.60;99.90;;;;;;5103208;27;20053;-80
2024/02/27 06:13:28;;;;;;;22.45;12.40;;;5.60;99.90;;;;;;5099617;28;20118;-80
2024/02/27 06:16:18;;;;;;;18.45;11.30;;;5.60;99.90;;;;;;5097265;28;20051;-81
2024/02/27 06:19:07;;;;;;;21.45;12.85;;;5.60;99.90;;;;;;5104559;27;20050;-82
2024/02/27 06:25:00;;;;;;;25.42;14.23;;;5.50;99.90;;;;;;5109014;27;20137;-79
2024/02/27 06:27:49;;;;;;;28.08;13.98;;;5.60;99.90;;;;;;5097412;28;20123;-81
2024/02/27 06:30:37;;;;;;;24.90;13.52;;;5.50;99.90;;;;;;5099657;27;20513;-78
2024/02/27 06:33:24;;;;;;;25.52;13.90;;;5.50;99.90;;;;;;5082277;28;20047;-78
2024/02/27 06:36:14;;;;;;;22.60;13.80;;;5.50;99.90;;;;;;5093112;28;20036;-79
2024/02/27 06:39:03;;;;;;;25.90;14.02;;;5.50;99.90;;;;;;5098978;28;20044;-79
2024/02/27 06:41:51;;;;;;;24.52;15.30;;;5.40;99.90;;;;;;5102156;28;20477;-81
2024/02/27 06:44:43;;;;;;;26.83;15.02;;;5.40;99.90;;;;;;5098347;28;20055;-80
2024/02/27 06:47:37;;;;;;;25.50;15.20;;;5.40;99.90;;;;;;5094416;28;20312;-81
2024/02/27 06:50:24;;;;;;;30.25;14.20;;;5.40;99.90;;;;;;5105615;27;20078;-79
2024/02/27 06:53:12;;;;;;;29.25;16.08;;;5.40;99.90;;;;;;5107608;27;20051;-78
2024/02/27 06:56:02;;;;;;;28.08;15.30;;;5.40;99.90;;;;;;5107946;27;20035;-77
2024/02/27 06:58:50;;;;;;;27.98;14.82;;;5.50;99.90;;;;;;5096112;27;20052;-81
2024/02/27 07:01:40;;;;;;;30.70;15.75;;;5.40;99.90;;;;;;5106557;27;20052;-78
2024/02/27 07:04:28;;;;;;;26.63;15.55;;;5.50;99.90;;;;;;5086038;27;20096;-80
2024/02/27 07:07:16;;;;;;;30.45;16.48;;;5.50;99.90;;;;;;5101913;27;20042;-79
2024/02/27 07:10:09;;;;;;;25.65;16.35;;;5.50;99.90;;;;;;5088062;28;20044;-82
2024/02/27 07:12:56;;;;;;;30.52;16.98;;;5.50;99.90;;;;;;5093161;28;20193;-80
2024/02/27 07:15:45;;;;;;;31.15;17.10;;;5.50;99.90;;;;;;5107112;27;20044;-78
2024/02/27 07:18:32;;;;;;;33.40;17.00;;;5.60;99.90;;;;;;5126285;27;20086;-78
2024/02/27 07:21:22;;;;;;;27.88;15.55;;;5.60;99.90;;;;;;5097379;28;20570;-75
2024/02/27 07:24:10;;;;;;;25.48;16.38;;;5.70;99.90;;;;;;5103695;27;20099;-83
2024/02/27 07:27:00;;;;;;;30.73;16.65;;;5.70;99.90;;;;;;5107521;27;20451;-81
2024/02/27 07:29:49;;;;;;;28.02;16.48;;;5.70;99.90;;;;;;5095562;28;20040;-79
2024/02/27 07:32:37;;;;;;;30.48;16.45;;;5.70;99.90;;;;;;5100717;27;20228;-82
2024/02/27 07:35:25;;;;;;;28.30;16.77;;;5.80;99.90;;;;;;5082172;27;20039;-78
2024/02/27 07:38:14;;;;;;;33.17;18.33;;;5.90;99.90;;;;;;5092750;27;20063;-81
2024/02/27 07:41:03;;;;;;;31.30;17.63;;;5.90;95.10;;;;;;5106622;28;20047;-83
2024/02/27 07:43:54;;;;;;;29.55;16.52;;;5.90;72.30;;;;;;5091989;28;20044;-82
2024/02/27 07:46:43;;;;;;;29.15;16.80;;;5.90;53.30;;;;;;5102988;28;20048;-79
2024/02/27 07:49:31;;;;;;;37.13;17.77;;;6.10;26.00;;;;;;5108950;27;20040;-82
2024/02/27 07:52:19;;;;;;;36.47;17.23;;;6.20;13.10;;;;;;5103895;27;20050;-81
2024/02/27 07:55:07;;;;;;;28.88;17.75;;;6.30;1.00;;;;;;5096801;27;20046;-79
2024/02/27 07:57:56;;;;;;;35.13;18.58;;;6.40;1.00;;;;;;5103885;27;20043;-82
2024/02/27 08:00:49;;;;;;;31.38;18.23;;;6.50;1.00;;;;;;5094880;27;20210;-80
2024/02/27 08:03:36;;;;;;;28.08;17.10;;;6.60;1.00;;;;;;5091835;28;20126;-76
2024/02/27 08:06:27;;;;;;;30.00;16.83;;;6.70;1.00;;;;;;5117470;27;20099;-79
2024/02/27 08:09:16;;;;;;;30.15;18.00;;;6.70;1.00;;;;;;5122243;27;20063;-77
2024/02/27 08:12:06;;;;;;;30.30;18.63;;;6.60;1.00;;;;;;5120514;28;20036;-79
2024/02/27 08:14:54;;;;;;;29.67;16.92;;;6.70;1.00;;;;;;5124485;27;20031;-77
2024/02/27 08:17:44;;;;;;;28.67;18.08;;;6.70;1.00;;;;;;5098384;28;20051;-77
2024/02/27 08:20:32;;;;;;;30.73;17.75;;;6.70;1.00;;;;;;5102166;27;20554;-79
2024/02/27 08:23:22;;;;;;;30.58;18.27;;;6.70;1.00;;;;;;5093041;27;20039;-80
2024/02/27 08:26:10;;;;;;;31.00;18.55;;;6.70;1.00;;;;;;5112429;27;20047;-79
2024/02/27 08:29:00;;;;;;;32.33;18.60;;;6.80;1.00;;;;;;5108353;27;20160;-77
2024/02/27 08:31:47;;;;;;;31.88;19.77;;;7.00;1.00;;;;;;5106994;27;20048;-80
2024/02/27 08:34:40;;;;;;;35.83;20.30;;;7.30;1.00;;;;;;5106735;27;20078;-79
2024/02/27 08:37:29;;;;;;;30.25;18.55;;;7.50;99.90;;;;;;5087423;28;20169;-79
2024/02/27 08:40:17;;;;;;;33.13;19.02;;;7.70;99.90;;;;;;5090546;28;20032;-79
2024/02/27 08:43:04;;;;;;;32.00;19.40;;;7.70;99.90;;;;;;5104915;27;20055;-78
2024/02/27 08:45:52;;;;;;;31.85;16.85;;;7.70;99.90;;;;;;5111646;28;20040;-80
2024/02/27 08:48:46;;;;;;;26.23;17.05;;;7.80;99.90;;;;;;5087596;28;20130;-79
2024/02/27 08:51:39;;;;;;;33.15;18.55;;;7.80;99.90;;;;;;5103512;28;20412;-79
2024/02/27 08:54:26;;;;;;;29.92;18.10;;;8.00;99.90;;;;;;5100560;27;20563;-77
2024/02/27 08:57:16;;;;;;;27.40;16.65;;;8.00;99.90;;;;;;5116478;27;20115;-80
2024/02/27 09:00:06;;;;;;;29.52;17.15;;;8.20;99.90;;;;;;5113910;27;20043;-82
2024/02/27 09:02:55;;;;;;;29.48;17.33;;;8.30;99.90;;;;;;5111385;27;20050;-80
2024/02/27 09:05:43;;;;;;;32.55;19.77;;;8.10;99.90;;;;;;5074785;27;20048;-82
2024/02/27 09:08:31;;;;;;;29.95;18.20;;;8.00;99.90;;;;;;5117700;27;20043;-79
2024/02/27 09:11:20;;;;;;;31.45;18.42;;;7.90;99.90;;;;;;5105236;27;20035;-80
2024/02/27 09:14:11;;;;;;;36.88;19.65;;;7.90;99.90;;;;;;5088012;28;20051;-77
2024/02/27 09:17:00;;;;;;;39.05;20.77;;;8.00;99.90;;;;;;5096109;27;20528;-78
2024/02/27 09:19:50;;;;;;;31.52;18.63;;;8.00;99.90;;;;;;5089723;27;20043;-79
2024/02/27 09:22:42;;;;;;;31.92;17.85;;;8.00;99.90;;;;;;5108009;27;20549;-81
2024/02/27 09:25:32;;;;;;;31.52;18.55;;;7.80;99.90;;;;;;5107471;27;20051;-79
2024/02/27 09:28:21;;;;;;;31.92;18.10;;;7.70;99.90;;;;;;5111688;27;20478;-79
2024/02/27 09:31:09;;;;;;;29.60;17.92;;;7.60;99.90;;;;;;5106883;28;20040;-78
2024/02/27 09:34:14;;;;;;;32.55;18.08;;;7.50;99.90;;;;;;5110818;27;20063;-77
2024/02/27 09:37:02;;;;;;;29.45;18.50;;;7.50;99.90;;;;;;5101706;27;20036;-79
2024/02/27 09:39:53;;;;;;;32.45;17.88;;;7.50;99.90;;;;;;5102342;27;20416;-80
2024/02/27 09:42:55;;;;;;;27.42;16.90;;;7.50;99.90;;;;;;5099186;27;20043;-78
2024/02/27 09:45:42;;;;;;;35.00;18.88;;;7.50;99.90;;;;;;5111026;28;20111;-78
2024/02/27 09:48:41;;;;;;;29.17;18.58;;;7.50;99.90;;;;;;5132167;27;20035;-77
2024/02/27 09:51:33;;;;;;;29.02;16.85;;;7.60;99.90;;;;;;5117746;27;20071;-78
2024/02/27 09:54:21;;;;;;;31.33;18.17;;;7.60;99.90;;;;;;5125069;27;20051;-78
2024/02/27 09:57:09;;;;;;;32.00;18.20;;;7.60;99.90;;;;;;5093204;28;20093;-81
2024/02/27 09:59:56;;;;;;;28.10;17.33;;;7.50;99.90;;;;;;5098879;28;20557;-80
2024/02/27 10:02:51;;;;;;;27.00;16.63;;;7.50;99.90;;;;;;5088974;28;20421;-77
2024/02/27 10:05:41;;;;;;;29.15;17.00;;;7.70;99.90;;;;;;5111007;27;20047;-82
2024/02/27 10:08:29;;;;;;;29.48;17.38;;;7.80;99.90;;;;;;5093927;27;20039;-78
2024/02/27 10:11:23;;;;;;;27.48;16.35;;;8.00;99.90;;;;;;5104030;27;20051;-77
2024/02/27 10:14:22;;;;;;;28.85;17.20;;;8.10;99.90;;;;;;5102481;28;20055;-80
2024/02/27 10:17:10;;;;;;;30.15;17.00;;;8.20;99.90;;;;;;5091165;28;20678;-79
2024/02/27 10:19:59;;;;;;;28.25;15.98;;;8.20;99.90;;;;;;5085768;28;20149;-81
2024/02/27 10:22:50;;;;;;;28.25;17.63;;;8.20;99.90;;;;;;5073856;28;20040;-80
2024/02/27 10:25:38;;;;;;;28.67;17.05;;;8.10;99.90;;;;;;5097957;27;20059;-80
2024/02/27 10:28:26;;;;;;;24.58;15.68;;;8.20;99.90;;;;;;5098360;28;20048;-77
2024/02/27 10:31:15;;;;;;;29.23;16.60;;;8.20;99.90;;;;;;5109904;27;20036;-78
2024/02/27 10:34:06;;;;;;;25.35;16.50;;;8.30;99.90;;;;;;5100120;28;20115;-79
2024/02/27 10:37:00;;;;;;;28.33;15.90;;;8.30;99.90;;;;;;5100465;28;20369;-79
2024/02/27 10:39:48;;;;;;;30.67;16.00;;;8.30;99.90;;;;;;5104431;28;20048;-77
2024/02/27 10:42:40;;;;;;;25.80;16.45;;;8.20;99.90;;;;;;5109036;28;20170;-80
2024/02/27 10:45:34;;;;;;;28.73;16.45;;;8.30;99.90;;;;;;5103694;28;20088;-78
2024/02/27 10:48:23;;;;;;;30.40;17.08;;;8.30;99.90;;;;;;5108694;28;20079;-80
2024/02/27 10:51:25;;;;;;;23.77;15.37;;;8.30;99.90;;;;;;5090302;28;20040;-82
2024/02/27 10:54:16;;;;;;;27.40;16.80;;;8.40;99.90;;;;;;5111983;28;20366;-81
2024/02/27 10:57:06;;;;;;;25.35;15.00;;;8.60;99.90;;;;;;5110180;28;20046;-77
2024/02/27 10:59:54;;;;;;;26.65;15.70;;;8.60;99.90;;;;;;5123187;28;20035;-79
2024/02/27 11:02:49;;;;;;;25.30;15.65;;;8.60;99.90;;;;;;5121766;28;20043;-78
2024/02/27 11:05:45;;;;;;;25.70;15.30;;;8.70;99.90;;;;;;5117797;28;20086;-76
2024/02/27 11:08:33;;;;;;;25.20;14.93;;;8.90;99.90;;;;;;5105993;28;20402;-78
2024/02/27 11:11:27;;;;;;;25.63;15.52;;;9.10;99.90;;;;;;5120927;28;20031;-78
2024/02/27 11:14:22;;;;;;;25.13;14.60;;;9.50;99.90;;;;;;5094682;28;20047;-78
2024/02/27 11:17:15;;;;;;;24.88;15.13;;;9.80;99.90;;;;;;5098903;28;20044;-81
2024/02/27 11:20:06;;;;;;;27.90;15.80;;;9.90;99.90;;;;;;5093959;28;20106;-79
2024/02/27 11:23:17;;;;;;;22.63;14.48;;;10.10;99.90;;;;;;5092621;28;20095;-81
2024/02/27 11:26:14;;;;;;;23.40;15.63;;;10.20;99.90;;;;;;5081577;28;20057;-81
2024/02/27 11:29:02;;;;;;;25.73;15.00;;;10.40;99.90;;;;;;5104873;28;20058;-79
2024/02/27 11:31:53;;;;;;;27.10;15.60;;;10.40;99.90;;;;;;5123396;27;20043;-77
2024/02/27 11:34:46;;;;;;;24.48;15.15;;;11.00;99.90;;;;;;5112486;27;20078;-78
2024/02/27 11:37:34;;;;;;;23.63;14.85;;;11.70;99.90;;;;;;5121775;27;20035;-77
2024/02/27 11:40:47;;;;;;;23.20;14.23;;;12.20;99.90;;;;;;5093582;27;20047;-81
2024/02/27 11:43:37;;;;;;;22.75;15.10;;;12.20;99.90;;;;;;5094136;27;20279;-80
2024/02/27 11:46:35;;;;;;;25.52;15.75;;;12.10;99.90;;;;;;5107655;27;20051;-81
2024/02/27 11:49:49;;;;;;;23.63;14.77;;;11.70;99.90;;;;;;5088220;28;20544;-81
2024/02/27 11:52:45;;;;;;;24.45;15.40;;;11.40;99.90;;;;;;5108265;27;20539;-79
2024/02/27 11:55:34;;;;;;;24.33;16.33;;;11.00;99.90;;;;;;5101855;27;20104;-80
2024/02/27 11:58:24;;;;;;;26.73;16.98;;;10.80;99.90;;;;;;5077733;28;20040;-81
2024/02/27 12:01:14;;;;;;;27.80;17.52;;;10.50;99.90;;;;;;5104525;27;20061;-80
2024/02/27 12:04:09;;;;;;;31.08;18.70;;;10.30;99.90;;;;;;5093063;28;20048;-77
2024/02/27 12:06:56;;;;;;;24.23;17.05;;;10.10;99.90;;;;;;5077243;28;20052;-76
2024/02/27 12:09:46;;;;;;;29.73;17.90;;;9.90;99.90;;;;;;5084984;28;20082;-79
2024/02/27 12:12:39;;;;;;;26.63;16.58;;;10.00;99.90;;;;;;5086578;28;20052;-76
2024/02/27 12:15:28;;;;;;;30.80;17.90;;;10.00;99.90;;;;;;5085226;28;20056;-78
2024/02/27 12:18:23;;;;;;;26.70;18.42;;;10.10;99.90;;;;;;5104435;27;20046;-77
2024/02/27 12:21:31;;;;;;;32.60;19.98;;;9.80;99.90;;;;;;5092731;27;20143;-78
2024/02/27 12:24:22;;;;;;;27.75;18.85;;;9.60;99.90;;;;;;5098671;27;20043;-78
2024/02/27 12:27:12;;;;;;;28.80;19.35;;;9.40;99.90;;;;;;5102971;27;20048;-76
2024/02/27 12:30:07;;;;;;;33.05;20.63;;;9.10;99.90;;;;;;5100109;27;20047;-76
2024/02/27 12:32:57;;;;;;;31.27;20.00;;;9.00;99.90;;;;;;5094546;27;20049;-80
2024/02/27 12:35:49;;;;;;;35.25;20.02;;;9.00;99.90;;;;;;5100923;27;20043;-79
2024/02/27 12:38:37;;;;;;;36.22;20.58;;;9.10;99.90;;;;;;5081589;27;20059;-82
2024/02/27 12:41:32;;;;;;;38.92;21.45;;;9.10;99.90;;;;;;5083266;28;20055;-79
2024/02/27 12:44:20;;;;;;;31.63;20.23;;;9.10;99.90;;;;;;5084130;28;20132;-82
2024/02/27 12:47:08;;;;;;;32.88;20.63;;;9.20;99.90;;;;;;5083977;28;20117;-79
2024/02/27 12:49:59;;;;;;;36.05;21.60;;;9.20;99.90;;;;;;5086974;28;20052;-82
2024/02/27 12:52:50;;;;;;;32.28;19.88;;;9.30;99.90;;;;;;5105351;28;20040;-76
2024/02/27 12:55:53;;;;;;;32.22;21.00;;;9.30;99.90;;;;;;5106348;27;20103;-77
2024/02/27 12:58:43;;;;;;;39.03;21.42;;;9.30;99.90;;;;;;5112669;27;20048;-79
2024/02/27 13:01:34;;;;;;;33.72;19.95;;;9.30;99.90;;;;;;5112892;27;20048;-79
2024/02/27 13:04:23;;;;;;;32.92;20.88;;;9.20;99.90;;;;;;5109924;27;20027;-78
2024/02/27 13:07:13;;;;;;;35.08;21.67;;;9.10;99.90;;;;;;5114342;27;20043;-78
2024/02/27 13:10:02;;;;;;;33.90;20.98;;;9.10;99.90;;;;;;5114405;27;20052;-81
2024/02/27 13:13:16;;;;;;;33.90;20.70;;;9.30;99.90;;;;;;5099098;27;20054;-79
2024/02/27 13:16:06;;;;;;;33.60;22.13;;;9.40;99.90;;;;;;5109939;27;20138;-77
2024/02/27 13:18:54;;;;;;;29.35;19.17;;;9.60;99.90;;;;;;5115297;27;20026;-78
2024/02/27 13:21:45;;;;;;;32.38;19.65;;;10.00;99.90;;;;;;5105268;27;20032;-76
2024/02/27 13:24:34;;;;;;;32.45;19.75;;;10.60;99.90;;;;;;5107746;27;20057;-79
2024/02/27 13:27:26;;;;;;;36.78;20.27;;;10.80;99.90;;;;;;5101876;27;20626;-83
2024/02/27 13:30:17;;;;;;;32.47;20.02;;;11.00;99.90;;;;;;5094821;27;20059;-78
2024/02/27 13:33:15;;;;;;;35.60;19.80;;;11.30;99.90;;;;;;5106715;27;20640;-78
2024/02/27 13:36:06;;;;;;;35.08;21.10;;;11.10;99.90;;;;;;5102986;27;20093;-79
2024/02/27 13:38:57;;;;;;;34.17;20.40;;;10.90;99.90;;;;;;5107692;27;20150;-78
2024/02/27 13:41:48;;;;;;;31.92;20.70;;;10.80;99.90;;;;;;5091076;28;20119;-78
2024/02/27 13:44:39;;;;;;;35.83;21.20;;;10.60;99.90;;;;;;5111368;27;20071;-79
2024/02/27 13:47:28;;;;;;;36.28;22.15;;;10.50;99.90;;;;;;5092675;28;20173;-77
2024/02/27 13:50:20;;;;;;;33.53;22.17;;;10.20;99.90;;;;;;5121937;27;20063;-77
2024/02/27 13:53:12;;;;;;;48.25;23.02;;;10.00;99.90;;;;;;5100342;27;20052;-79
2024/02/27 13:56:01;;;;;;;40.10;23.80;;;9.80;99.90;;;;;;5096127;28;20040;-75
2024/02/27 13:58:54;;;;;;;36.22;22.20;;;9.70;99.90;;;;;;5099372;27;20055;-80
2024/02/27 14:01:42;;;;;;;35.35;23.25;;;9.60;99.90;;;;;;5065386;28;20047;-80
2024/02/27 14:04:30;;;;;;;36.40;23.13;;;9.60;99.90;;;;;;5082653;28;20356;-79
2024/02/27 14:07:30;;;;;;;36.92;22.13;;;9.80;99.90;;;;;;5072251;28;20043;-80
2024/02/27 14:10:19;;;;;;;34.63;22.23;;;9.80;99.90;;;;;;5099469;28;20054;-79
2024/02/27 14:13:08;;;;;;;35.50;22.73;;;9.70;99.90;;;;;;5119178;27;20049;-79
2024/02/27 14:15:57;;;;;;;35.72;22.83;;;9.80;99.90;;;;;;5091808;27;20055;-79
2024/02/27 14:18:45;;;;;;;33.05;21.83;;;9.90;99.90;;;;;;5101847;27;20051;-82
2024/02/27 14:21:33;;;;;;;34.47;21.17;;;10.20;99.90;;;;;;5104285;28;20060;-80
2024/02/27 14:24:21;;;;;;;34.75;21.63;;;10.40;99.90;;;;;;5101462;27;20094;-82
2024/02/27 14:27:08;;;;;;;34.63;20.67;;;10.40;99.90;;;;;;5093347;28;20071;-81
2024/02/27 14:29:58;;;;;;;31.13;19.63;;;10.30;99.90;;;;;;5095932;28;20051;-81
2024/02/27 14:32:46;;;;;;;32.92;21.10;;;10.20;99.90;;;;;;5096824;28;20412;-78
2024/02/27 14:35:35;;;;;;;33.60;20.73;;;10.00;99.90;;;;;;5097576;28;20035;-76
2024/02/27 14:38:47;;;;;;;32.55;21.13;;;10.00;99.90;;;;;;5096886;28;20044;-82
2024/02/27 14:41:39;;;;;;;36.03;21.48;;;9.90;99.90;;;;;;5100706;28;20045;-79